Time;durP1;ratioP1;P1;durP2;ratioP2;P2;SDS_P1;SDS_P2;PMS_P1;PMS_P2;Temp;Humidity;BMP_temperature;BMP_pressure;BME280_temperature;BME280_humidity;BME280_pressure;Samples;Min_cycle;Max_cycle;Signal;HPM_P1;HPM_P2
2023/09/12 00:00:19;;;;;;;10.10;7.68;;;;;;;18.20;100.00;95988.72;4964439;28;20025;-67
2023/09/12 00:02:44;;;;;;;7.78;7.18;;;;;;;18.10;100.00;95993.50;4969065;28;20026;-67
2023/09/12 00:05:10;;;;;;;8.50;7.90;;;;;;;18.09;100.00;95991.84;4968658;28;20033;-67
2023/09/12 00:07:36;;;;;;;10.57;8.45;;;;;;;18.05;100.00;95994.03;4961167;28;20035;-67
2023/09/12 00:10:02;;;;;;;9.48;8.07;;;;;;;18.03;100.00;95998.72;4967955;28;20025;-67
2023/09/12 00:12:28;;;;;;;8.65;7.80;;;;;;;18.03;100.00;96004.06;4963954;28;20025;-67
2023/09/12 00:14:54;;;;;;;8.48;7.47;;;;;;;18.06;100.00;96006.34;4968899;28;20560;-67
2023/09/12 00:17:19;;;;;;;8.98;8.10;;;;;;;18.08;100.00;96009.66;4971166;28;20092;-67
2023/09/12 00:19:44;;;;;;;8.13;7.60;;;;;;;17.99;100.00;96014.19;4971548;28;20027;-67
2023/09/12 00:22:10;;;;;;;8.73;8.02;;;;;;;17.99;100.00;96014.19;4961645;28;20074;-67
2023/09/12 00:24:35;;;;;;;9.45;8.60;;;;;;;18.01;100.00;96012.22;4964917;28;20430;-67
2023/09/12 00:27:01;;;;;;;8.80;8.00;;;;;;;18.06;100.00;96003.69;4966727;28;20561;-67
2023/09/12 00:29:26;;;;;;;8.93;8.23;;;;;;;18.12;100.00;96000.28;4966991;28;20072;-67
2023/09/12 00:31:51;;;;;;;9.13;8.27;;;;;;;18.17;100.00;95995.25;4966573;28;20046;-67
2023/09/12 00:34:17;;;;;;;8.98;8.18;;;;;;;18.14;100.00;96002.78;4959516;28;20019;-67
2023/09/12 00:36:43;;;;;;;9.90;8.27;;;;;;;18.11;100.00;95989.84;4964875;28;20023;-67
2023/09/12 00:39:08;;;;;;;8.68;7.97;;;;;;;18.11;100.00;95987.16;4969761;28;20509;-67
2023/09/12 00:41:34;;;;;;;9.02;8.23;;;;;;;18.08;100.00;95993.69;4961981;28;20027;-67
2023/09/12 00:43:59;;;;;;;9.13;8.50;;;;;;;18.08;100.00;95987.53;4971581;28;20077;-67
2023/09/12 00:46:26;;;;;;;9.32;8.27;;;;;;;18.03;100.00;95986.25;4987210;28;20031;-67
2023/09/12 00:48:53;;;;;;;8.70;7.90;;;;;;;18.00;100.00;95980.41;4983554;28;20026;-67
2023/09/12 00:51:20;;;;;;;8.75;7.95;;;;;;;17.97;100.00;95980.78;4986791;28;20521;-67
2023/09/12 00:53:46;;;;;;;12.30;8.82;;;;;;;17.93;100.00;95988.28;4988069;28;20014;-67
2023/09/12 00:56:12;;;;;;;9.55;8.45;;;;;;;17.92;100.00;95973.31;4988825;28;20079;-67
2023/09/12 00:58:38;;;;;;;9.88;8.55;;;;;;;17.81;100.00;95976.44;4982238;28;20495;-67
2023/09/12 01:01:04;;;;;;;8.88;8.13;;;;;;;17.80;100.00;95978.28;4975813;28;20079;-67
2023/09/12 01:03:30;;;;;;;8.60;7.97;;;;;;;17.84;100.00;95973.41;4985729;28;20072;-67
2023/09/12 01:05:58;;;;;;;9.05;8.38;;;;;;;17.85;100.00;95969.75;4981939;28;20030;-67
2023/09/12 01:08:24;;;;;;;9.38;8.52;;;;;;;17.84;100.00;95966.25;4986202;28;20503;-67
2023/09/12 01:10:52;;;;;;;9.20;8.40;;;;;;;17.80;100.00;95966.81;4980979;28;20045;-67
2023/09/12 01:13:18;;;;;;;8.60;8.00;;;;;;;17.80;100.00;95969.47;4986519;28;20018;-67
2023/09/12 01:15:43;;;;;;;9.07;8.38;;;;;;;17.81;100.00;95963.13;4981595;28;20611;-67
2023/09/12 01:18:09;;;;;;;8.45;7.90;;;;;;;17.66;100.00;95971.91;4997129;28;20029;-67
2023/09/12 01:20:38;;;;;;;8.85;8.15;;;;;;;17.59;100.00;95963.81;4985671;28;20352;-67
2023/09/12 01:23:38;;;;;;;11.77;8.45;;;;;;;17.55;100.00;95964.34;4990750;28;20023;-67
2023/09/12 01:26:19;;;;;;;8.48;7.78;;;;;;;17.50;100.00;95961.38;4984495;28;20030;-67
2023/09/12 01:28:45;;;;;;;9.80;7.95;;;;;;;17.49;100.00;95952.59;4977874;28;20022;-67
2023/09/12 01:31:12;;;;;;;9.68;8.43;;;;;;;17.47;100.00;95944.78;4983847;28;20394;-67
2023/09/12 01:33:37;;;;;;;9.65;8.77;;;;;;;17.46;100.00;95947.59;4987004;28;20505;-67
2023/09/12 01:36:03;;;;;;;9.77;8.98;;;;;;;17.37;100.00;95946.88;4985746;28;20047;-67
2023/09/12 01:38:29;;;;;;;10.35;8.55;;;;;;;17.37;100.00;95946.03;4984639;28;20541;-67
2023/09/12 01:40:55;;;;;;;9.93;7.93;;;;;;;17.38;100.00;95943.19;4987419;28;20112;-67
2023/09/12 01:43:23;;;;;;;8.88;8.20;;;;;;;17.39;100.00;95946.66;4985240;28;20026;-67
2023/09/12 01:45:53;;;;;;;9.50;8.68;;;;;;;17.29;100.00;95946.91;4980914;28;20030;-67
2023/09/12 01:48:33;;;;;;;10.00;9.10;;;;;;;17.29;100.00;95944.25;4984582;28;20027;-67
2023/09/12 01:51:00;;;;;;;9.15;8.35;;;;;;;17.31;100.00;95939.56;4973919;28;20027;-67
2023/09/12 01:53:26;;;;;;;9.77;8.88;;;;;;;17.33;100.00;95940.22;4987431;28;20056;-67
2023/09/12 01:55:52;;;;;;;9.27;8.57;;;;;;;17.30;100.00;95933.44;4983622;28;20026;-67
2023/09/12 01:58:20;;;;;;;8.70;8.10;;;;;;;17.29;100.00;95922.97;4984734;28;20102;-67
2023/09/12 02:00:45;;;;;;;8.95;8.13;;;;;;;17.26;100.00;95928.63;4983487;28;20117;-67
2023/09/12 02:03:10;;;;;;;9.43;8.38;;;;;;;17.15;100.00;95929.88;4991795;28;20082;-67
2023/09/12 02:05:37;;;;;;;9.35;8.45;;;;;;;17.14;100.00;95931.72;4988409;28;20045;-67
2023/09/12 02:08:04;;;;;;;10.15;9.15;;;;;;;17.18;100.00;95937.50;4989038;28;20052;-67
2023/09/12 02:10:30;;;;;;;9.60;8.90;;;;;;;17.23;100.00;95929.00;4985993;28;20026;-67
2023/09/12 02:12:55;;;;;;;9.90;9.00;;;;;;;17.24;100.00;95933.31;4992814;28;20026;-67
2023/09/12 02:15:21;;;;;;;9.57;8.82;;;;;;;17.26;100.00;95933.97;4989897;28;20112;-67
2023/09/12 02:17:46;;;;;;;9.27;8.48;;;;;;;17.27;100.00;95930.28;4995623;28;20022;-67
2023/09/12 02:20:11;;;;;;;9.45;8.60;;;;;;;17.30;100.00;95935.25;4983594;28;20027;-67
2023/09/12 02:22:37;;;;;;;9.20;8.35;;;;;;;17.31;100.00;95931.59;4977513;28;20042;-67
2023/09/12 02:25:05;;;;;;;9.65;8.82;;;;;;;17.27;100.00;95924.97;4993369;28;20031;-67
2023/09/12 02:27:30;;;;;;;9.48;8.77;;;;;;;17.25;100.00;95927.84;4999006;28;20038;-67
2023/09/12 02:29:56;;;;;;;12.30;9.35;;;;;;;17.24;100.00;95928.00;4984782;28;20026;-66
2023/09/12 02:32:21;;;;;;;10.13;8.93;;;;;;;17.21;100.00;95920.38;4987165;28;20035;-66
2023/09/12 02:34:47;;;;;;;9.32;8.65;;;;;;;17.17;100.00;95931.38;4988569;28;20083;-67
2023/09/12 02:37:12;;;;;;;9.32;8.35;;;;;;;17.13;100.00;95923.91;4986756;28;20030;-66
2023/09/12 02:39:37;;;;;;;10.18;9.20;;;;;;;17.12;100.00;95922.25;4985373;28;20037;-66
2023/09/12 02:42:03;;;;;;;9.75;8.88;;;;;;;17.15;100.00;95917.44;4990100;28;20035;-66
2023/09/12 02:44:28;;;;;;;9.15;8.45;;;;;;;17.15;100.00;95921.91;4982165;28;20047;-66
2023/09/12 02:46:54;;;;;;;9.85;8.85;;;;;;;17.14;100.00;95925.56;4982748;28;20520;-66
2023/09/12 02:49:19;;;;;;;9.43;8.45;;;;;;;17.16;100.00;95934.19;4985467;28;20023;-66
2023/09/12 02:51:45;;;;;;;9.00;8.20;;;;;;;17.10;100.00;95935.72;4986070;28;20110;-66
2023/09/12 02:54:11;;;;;;;10.35;9.30;;;;;;;17.12;100.00;95932.91;4992164;28;20053;-66
2023/09/12 02:56:36;;;;;;;9.88;8.98;;;;;;;17.12;100.00;95923.06;4987161;28;20035;-66
2023/09/12 02:59:02;;;;;;;10.18;9.18;;;;;;;17.15;100.00;95924.56;4987990;28;20033;-67
2023/09/12 03:01:28;;;;;;;10.60;9.52;;;;;;;17.16;100.00;95918.25;4987681;28;20109;-66
2023/09/12 03:03:54;;;;;;;9.88;8.98;;;;;;;17.16;100.00;95916.41;4989820;28;20026;-67
2023/09/12 03:06:20;;;;;;;10.50;9.10;;;;;;;17.12;100.00;95915.09;4981328;28;20031;-66
2023/09/12 03:08:46;;;;;;;12.48;8.57;;;;;;;17.08;100.00;95910.31;4981607;28;20037;-66
2023/09/12 03:11:11;;;;;;;9.68;8.88;;;;;;;17.00;100.00;95912.03;4981560;28;20109;-66
2023/09/12 03:13:37;;;;;;;11.30;10.20;;;;;;;16.88;100.00;95916.88;4981890;28;20091;-67
2023/09/12 03:16:03;;;;;;;13.60;10.38;;;;;;;16.88;100.00;95929.38;4992707;28;20031;-66
2023/09/12 03:18:29;;;;;;;12.45;9.45;;;;;;;16.85;100.00;95922.56;4986207;28;20042;-66
2023/09/12 03:20:54;;;;;;;9.57;8.77;;;;;;;16.82;100.00;95917.59;4983312;28;20518;-67
2023/09/12 03:23:20;;;;;;;9.65;8.77;;;;;;;16.72;100.00;95922.31;4989890;28;20039;-66
2023/09/12 03:25:45;;;;;;;10.15;9.35;;;;;;;16.67;100.00;95919.34;4990140;28;20030;-66
2023/09/12 03:28:11;;;;;;;10.00;9.15;;;;;;;16.66;100.00;95917.69;4985547;28;20080;-66
2023/09/12 03:30:38;;;;;;;11.02;9.75;;;;;;;16.66;100.00;95923.00;4986966;28;20034;-66
2023/09/12 03:33:04;;;;;;;12.20;9.43;;;;;;;16.68;100.00;95927.16;4982485;28;20038;-66
2023/09/12 03:35:32;;;;;;;9.82;8.93;;;;;;;16.65;100.00;95926.66;4988921;28;20038;-66
2023/09/12 03:37:57;;;;;;;10.05;9.25;;;;;;;16.60;100.00;95928.03;4983814;28;20039;-66
2023/09/12 03:40:23;;;;;;;11.23;9.75;;;;;;;16.60;100.00;95924.56;4986487;28;20631;-66
2023/09/12 03:42:48;;;;;;;10.68;9.88;;;;;;;16.67;100.00;95929.97;5025768;28;20477;-67
2023/09/12 03:45:14;;;;;;;11.15;10.15;;;;;;;16.72;100.00;95933.78;4987799;28;20047;-66
2023/09/12 03:47:39;;;;;;;14.48;13.07;;;;;;;16.79;100.00;95935.72;4990640;28;20758;-66
2023/09/12 03:50:05;;;;;;;10.43;9.43;;;;;;;16.72;100.00;95927.66;4975644;28;20073;-66
2023/09/12 03:52:31;;;;;;;10.40;9.18;;;;;;;16.72;100.00;95917.00;4975472;28;20047;-66
2023/09/12 03:54:56;;;;;;;10.05;9.15;;;;;;;16.77;100.00;95909.34;4989137;28;20121;-66
2023/09/12 03:57:22;;;;;;;10.18;9.25;;;;;;;16.86;100.00;95910.94;4979153;28;20033;-65
2023/09/12 03:59:47;;;;;;;11.80;9.48;;;;;;;16.86;100.00;95907.47;4981469;28;20561;-66
2023/09/12 04:02:13;;;;;;;10.20;9.30;;;;;;;16.77;100.00;95909.34;4984475;28;20026;-66
2023/09/12 04:04:38;;;;;;;10.65;9.52;;;;;;;16.68;100.00;95910.38;4971203;28;20097;-65
2023/09/12 04:07:04;;;;;;;10.90;9.85;;;;;;;16.64;100.00;95907.25;4976930;28;20105;-65
2023/09/12 04:09:30;;;;;;;10.73;9.73;;;;;;;16.58;100.00;95913.28;4982628;28;20022;-66
2023/09/12 04:11:55;;;;;;;10.20;9.30;;;;;;;16.57;100.00;95909.78;4984729;28;20449;-66
2023/09/12 04:14:21;;;;;;;10.35;9.35;;;;;;;16.54;100.00;95918.09;4981616;28;20022;-66
2023/09/12 04:16:47;;;;;;;9.48;8.68;;;;;;;16.56;100.00;95918.75;4990311;28;20379;-66
2023/09/12 04:19:13;;;;;;;11.25;9.57;;;;;;;16.51;100.00;95921.09;4991282;28;20018;-66
2023/09/12 04:21:39;;;;;;;10.70;9.80;;;;;;;16.53;100.00;95918.25;4991745;28;20041;-66
2023/09/12 04:24:05;;;;;;;10.88;9.68;;;;;;;16.56;100.00;95926.72;4991274;28;20034;-66
2023/09/12 04:26:31;;;;;;;11.25;10.20;;;;;;;16.56;100.00;95912.59;4982903;28;20022;-66
2023/09/12 04:28:56;;;;;;;10.45;9.43;;;;;;;16.51;100.00;95918.44;4981319;28;20161;-66
2023/09/12 04:31:21;;;;;;;13.73;9.30;;;;;;;16.50;100.00;95921.28;4977390;28;20158;-66
2023/09/12 04:33:47;;;;;;;10.90;9.80;;;;;;;16.47;100.00;95919.81;4988096;28;20041;-66
2023/09/12 04:36:12;;;;;;;10.88;10.07;;;;;;;16.46;100.00;95926.94;4983292;28;20028;-66
2023/09/12 04:38:38;;;;;;;11.25;10.25;;;;;;;16.47;100.00;95925.13;4981967;28;20034;-66
2023/09/12 04:41:04;;;;;;;12.00;9.98;;;;;;;16.47;100.00;95923.28;4979795;28;20026;-66
2023/09/12 04:43:33;;;;;;;10.50;9.43;;;;;;;16.49;100.00;95917.78;4979496;28;20026;-66
2023/09/12 04:45:59;;;;;;;10.25;9.38;;;;;;;16.45;100.00;95919.13;4984820;28;20034;-66
2023/09/12 04:48:24;;;;;;;13.48;9.23;;;;;;;16.36;100.00;95942.28;4983660;28;20018;-66
2023/09/12 04:50:50;;;;;;;10.57;9.50;;;;;;;16.33;100.00;95947.91;4977367;28;20015;-66
2023/09/12 04:53:17;;;;;;;12.65;10.15;;;;;;;16.31;100.00;95945.44;4989501;28;20014;-65
2023/09/12 04:55:42;;;;;;;10.38;9.57;;;;;;;16.32;100.00;95965.69;4988728;28;20030;-66
2023/09/12 04:58:07;;;;;;;13.07;11.57;;;;;;;16.31;100.00;95955.22;4989770;28;20124;-66
2023/09/12 05:00:33;;;;;;;11.80;10.85;;;;;;;16.30;100.00;95965.03;4990142;28;20048;-66
2023/09/12 05:02:59;;;;;;;15.82;10.48;;;;;;;16.36;100.00;95962.69;4990787;28;20044;-65
2023/09/12 05:05:24;;;;;;;11.75;10.02;;;;;;;16.37;100.00;95951.06;4977007;28;20982;-66
2023/09/12 05:07:53;;;;;;;12.60;9.88;;;;;;;16.35;100.00;95963.69;4988383;28;20570;-66
2023/09/12 05:10:19;;;;;;;14.50;9.77;;;;;;;16.38;100.00;95971.31;4986681;28;20011;-65
2023/09/12 05:12:44;;;;;;;13.20;10.15;;;;;;;16.38;100.00;95968.66;4989137;28;20486;-66
2023/09/12 05:15:10;;;;;;;11.10;9.68;;;;;;;16.40;100.00;95972.81;4986121;28;20034;-65
2023/09/12 05:17:35;;;;;;;15.77;10.70;;;;;;;16.44;100.00;95979.41;4986058;28;20022;-66
2023/09/12 05:20:03;;;;;;;22.15;11.50;;;;;;;16.42;100.00;95972.59;4986749;28;20030;-66
2023/09/12 05:22:28;;;;;;;15.90;9.73;;;;;;;16.39;100.00;95981.78;4988473;28;20041;-66
2023/09/12 05:24:54;;;;;;;11.15;9.70;;;;;;;16.40;100.00;95980.78;4977968;28;20052;-66
2023/09/12 05:27:19;;;;;;;17.73;10.82;;;;;;;16.43;100.00;95983.09;4989409;28;20058;-66
2023/09/12 05:29:45;;;;;;;14.00;9.48;;;;;;;16.45;100.00;95986.38;4984151;28;20479;-66
2023/09/12 05:32:10;;;;;;;13.75;10.32;;;;;;;16.46;100.00;95973.91;5009864;28;20015;-66
2023/09/12 05:34:35;;;;;;;17.85;10.77;;;;;;;16.44;100.00;95981.22;4989262;28;20412;-66
2023/09/12 05:37:01;;;;;;;14.52;10.07;;;;;;;16.46;100.00;95987.22;4992206;28;20026;-66
2023/09/12 05:39:26;;;;;;;11.73;9.55;;;;;;;16.52;100.00;95986.53;4979996;28;20117;-67
2023/09/12 05:41:51;;;;;;;12.73;10.27;;;;;;;16.58;100.00;95990.34;4990506;28;20414;-65
2023/09/12 05:44:18;;;;;;;25.90;10.57;;;;;;;16.62;100.00;95983.69;4988323;28;20064;-66
2023/09/12 05:46:47;;;;;;;11.52;10.07;;;;;;;16.74;100.00;95984.13;4990199;28;20077;-66
2023/09/12 05:49:14;;;;;;;14.02;10.13;;;;;;;16.86;100.00;95974.75;4989921;28;20628;-66
2023/09/12 05:51:40;;;;;;;11.60;10.50;;;;;;;16.95;100.00;95977.38;4991242;28;20091;-67
2023/09/12 05:54:07;;;;;;;21.33;11.43;;;;;;;17.01;100.00;95984.66;4988469;28;20497;-66
2023/09/12 05:56:33;;;;;;;14.55;10.43;;;;;;;17.02;100.00;95981.84;4986001;28;20243;-67
2023/09/12 05:58:59;;;;;;;14.57;10.35;;;;;;;17.11;100.00;95987.91;4980278;28;20068;-67
2023/09/12 06:01:24;;;;;;;10.98;9.75;;;;;;;17.20;100.00;95988.69;4980229;28;20026;-66
2023/09/12 06:03:49;;;;;;;14.43;9.68;;;;;;;17.28;100.00;95993.16;4986614;28;20019;-67
2023/09/12 06:06:15;;;;;;;14.23;10.07;;;;;;;17.32;100.00;95983.78;4983624;28;20027;-66
2023/09/12 06:08:41;;;;;;;18.23;11.20;;;;;;;17.29;100.00;95986.81;4983493;28;20023;-66
2023/09/12 06:11:06;;;;;;;16.02;9.95;;;;;;;17.24;100.00;95982.03;4986418;28;20110;-66
2023/09/12 06:13:32;;;;;;;16.27;10.35;;;;;;;17.29;100.00;95981.50;4976080;28;20054;-66
2023/09/12 06:15:58;;;;;;;18.75;10.57;;;;;;;17.31;100.00;95979.47;4989053;28;20586;-66
2023/09/12 06:18:24;;;;;;;20.33;10.77;;;;;;;17.29;100.00;95982.34;4992022;28;20034;-66
2023/09/12 06:20:49;;;;;;;17.40;9.73;;;;;;;17.33;100.00;95986.28;4992216;28;20037;-66
2023/09/12 06:23:15;;;;;;;13.70;10.45;;;;;;;17.40;100.00;95989.09;4992167;28;20060;-66
2023/09/12 06:25:40;;;;;;;16.20;10.70;;;;;;;17.52;100.00;95975.34;4992119;28;20064;-66
2023/09/12 06:28:09;;;;;;;14.88;10.55;;;;;;;17.67;100.00;95978.88;4988003;28;20037;-66
2023/09/12 06:30:34;;;;;;;15.55;11.15;;;;;;;17.80;100.00;95978.28;4984144;28;20038;-66
2023/09/12 06:33:00;;;;;;;11.52;10.00;;;;;;;17.79;100.00;95981.09;4976334;28;20017;-66
2023/09/12 06:35:25;;;;;;;13.60;9.48;;;;;;;17.86;100.00;95988.19;4992018;28;20023;-66
2023/09/12 06:37:51;;;;;;;20.30;10.02;;;;;;;17.92;100.00;95986.66;4989533;28;20050;-66
2023/09/12 06:40:16;;;;;;;18.00;10.45;;;;;;;18.00;100.00;95993.75;4982610;28;20023;-66
2023/09/12 06:42:41;;;;;;;15.23;10.25;;;;;;;18.08;100.00;95948.38;4993105;28;20090;-66
2023/09/12 06:45:07;;;;;;;14.27;9.70;;;;;;;18.15;100.00;95952.00;4979560;28;20058;-66
2023/09/12 06:47:32;;;;;;;13.48;10.15;;;;;;;18.21;100.00;95958.41;4989979;28;20031;-66
2023/09/12 06:49:58;;;;;;;17.15;10.55;;;;;;;18.23;100.00;95959.03;4980322;28;20031;-66
2023/09/12 06:52:23;;;;;;;15.55;10.70;;;;;;;18.23;100.00;95967.03;4989661;28;20718;-66
2023/09/12 06:54:49;;;;;;;17.98;9.43;;;;;;;18.22;100.00;95973.38;4972777;28;20419;-66
2023/09/12 06:57:14;;;;;;;14.13;10.40;;;;;;;18.28;100.00;95980.66;4985423;28;20660;-66
2023/09/12 06:59:39;;;;;;;16.75;9.48;;;;;;;18.35;100.00;95983.44;4986727;28;20026;-66
2023/09/12 07:02:05;;;;;;;11.00;9.88;;;;;;;18.42;100.00;95988.81;4978099;28;20035;-66
2023/09/12 07:04:30;;;;;;;15.25;9.35;;;;;;;18.48;100.00;95985.44;4991683;28;20026;-66
2023/09/12 07:06:56;;;;;;;14.10;10.18;;;;;;;18.48;100.00;95982.78;4990821;28;20030;-66
2023/09/12 07:09:21;;;;;;;9.57;8.68;;;;;;;18.53;100.00;95983.03;4987950;28;20661;-66
2023/09/12 07:11:48;;;;;;;12.65;8.95;;;;;;;18.54;100.00;95978.53;4988478;28;20041;-67
2023/09/12 07:14:13;;;;;;;10.63;8.70;;;;;;;18.56;100.00;95976.50;4988143;28;20011;-66
2023/09/12 07:16:39;;;;;;;9.65;8.55;;;;;;;18.59;100.00;95986.81;4987200;28;20049;-66
2023/09/12 07:19:04;;;;;;;11.50;8.80;;;;;;;18.61;100.00;95990.94;4988037;28;20050;-66
2023/09/12 07:21:31;;;;;;;9.63;8.68;;;;;;;18.59;100.00;95989.47;4990361;28;20026;-66
2023/09/12 07:23:57;;;;;;;12.65;9.63;;;;;;;18.61;100.00;95990.13;4991011;28;20026;-66
2023/09/12 07:26:22;;;;;;;15.65;9.80;;;;;;;18.61;100.00;95995.44;4990750;28;20094;-66
2023/09/12 07:28:48;;;;;;;13.27;9.02;;;;;;;18.60;100.00;96001.81;4985190;28;20030;-66
2023/09/12 07:31:14;;;;;;;11.38;10.18;;;;;;;18.58;100.00;96007.31;4985760;28;20041;-66
2023/09/12 07:33:40;;;;;;;9.80;8.80;;;;;;;18.61;100.00;95993.59;4990094;28;20034;-66
2023/09/12 07:36:06;;;;;;;10.77;8.25;;;;;;;18.66;100.00;95994.88;4988403;28;20053;-66
2023/09/12 07:38:32;;;;;;;9.65;8.00;;;;;;;18.74;100.00;95986.78;4976815;28;20507;-66
2023/09/12 07:40:58;;;;;;;8.85;8.10;;;;;;;19.03;100.00;95975.28;4978608;28;20041;-66
2023/09/12 07:43:23;;;;;;;11.32;8.85;;;;;;;19.10;100.00;95972.66;4983851;28;20018;-66
2023/09/12 07:45:49;;;;;;;9.23;8.43;;;;;;;19.16;100.00;95977.25;4982451;28;20495;-66
2023/09/12 07:48:15;;;;;;;13.50;12.27;;;;;;;19.15;100.00;95972.09;4991099;28;20034;-66
2023/09/12 07:50:40;;;;;;;14.73;12.48;;;;;;;19.15;100.00;95991.63;5018779;28;20091;-66
2023/09/12 07:53:06;;;;;;;10.60;9.50;;;;;;;19.28;100.00;95979.41;4975904;28;20642;-66
2023/09/12 07:55:36;;;;;;;9.93;8.60;;;;;;;19.29;100.00;95989.06;4976378;28;20050;-66
2023/09/12 07:58:02;;;;;;;9.90;8.90;;;;;;;19.37;100.00;95988.13;4983927;28;20034;-66
2023/09/12 08:00:28;;;;;;;9.90;8.52;;;;;;;19.54;100.00;95984.19;4980781;28;20034;-66
2023/09/12 08:02:53;;;;;;;9.50;8.60;;;;;;;19.66;100.00;95989.84;4981212;28;20022;-66
2023/09/12 08:05:19;;;;;;;10.10;9.10;;;;;;;19.68;100.00;95985.13;4979650;28;20026;-66
2023/09/12 08:07:44;;;;;;;9.32;8.45;;;;;;;19.69;100.00;95976.09;4985040;28;20500;-66
2023/09/12 08:10:09;;;;;;;9.70;8.52;;;;;;;19.74;100.00;95978.19;4979102;28;20041;-66
2023/09/12 08:12:38;;;;;;;9.02;8.32;;;;;;;19.70;100.00;95955.56;4987085;28;20060;-67
2023/09/12 08:15:04;;;;;;;11.60;8.60;;;;;;;19.74;100.00;95959.50;5007933;28;20066;-66
2023/09/12 08:17:29;;;;;;;9.00;8.13;;;;;;;19.85;100.00;95975.00;5005886;28;20034;-66
2023/09/12 08:19:55;;;;;;;8.88;7.72;;;;;;;19.96;100.00;95964.84;4978416;28;20034;-66
2023/09/12 08:22:20;;;;;;;8.75;8.05;;;;;;;20.14;100.00;95972.34;4985318;28;20566;-67
2023/09/12 08:24:46;;;;;;;10.60;9.57;;;;;;;20.33;100.00;95982.34;4990178;28;20026;-66
2023/09/12 08:27:11;;;;;;;10.13;9.10;;;;;;;20.66;100.00;95993.41;4988218;28;20654;-66
2023/09/12 08:29:37;;;;;;;9.07;8.30;;;;;;;21.02;100.00;95960.25;4989592;28;20026;-66
2023/09/12 08:32:02;;;;;;;9.20;7.75;;;;;;;21.15;100.00;95930.00;4988144;28;20026;-67
2023/09/12 08:34:28;;;;;;;9.13;8.30;;;;;;;21.17;100.00;95926.13;4973223;28;20055;-66
2023/09/12 08:36:54;;;;;;;8.32;7.57;;;;;;;21.37;100.00;95919.13;4985708;28;20105;-66
2023/09/12 08:39:27;;;;;;;8.25;7.45;;;;;;;21.39;100.00;95928.63;4987781;28;20109;-66
2023/09/12 08:41:53;;;;;;;8.52;7.82;;;;;;;21.42;100.00;95913.97;4983048;28;20125;-66
2023/09/12 08:44:20;;;;;;;8.57;7.68;;;;;;;21.56;100.00;95918.31;4984953;28;20644;-66
2023/09/12 08:46:46;;;;;;;9.50;7.63;;;;;;;21.76;100.00;95909.50;4986246;28;20041;-67
2023/09/12 08:49:11;;;;;;;8.23;7.63;;;;;;;21.94;100.00;95886.59;4989501;28;20023;-66
2023/09/12 08:51:39;;;;;;;8.07;7.40;;;;;;;22.20;100.00;95891.03;4989293;28;20038;-67
2023/09/12 08:54:05;;;;;;;8.85;8.05;;;;;;;22.41;100.00;95905.22;4983512;28;20053;-66
2023/09/12 08:56:34;;;;;;;8.27;7.43;;;;;;;22.54;100.00;95888.28;4987888;28;20030;-66
2023/09/12 08:59:01;;;;;;;11.43;7.70;;;;;;;22.64;100.00;95879.78;4986808;28;20063;-66
2023/09/12 09:01:30;;;;;;;7.85;7.15;;;;;;;22.56;100.00;95872.81;4987939;28;20026;-66
2023/09/12 09:03:56;;;;;;;10.82;7.57;;;;;;;22.63;100.00;95864.72;5008488;28;20105;-66
2023/09/12 09:06:23;;;;;;;8.38;7.55;;;;;;;22.60;100.00;95850.69;4984674;28;20057;-66
2023/09/12 09:08:49;;;;;;;8.65;7.80;;;;;;;22.74;100.00;95853.31;4984136;28;20086;-66
2023/09/12 09:11:14;;;;;;;7.25;6.75;;;;;;;22.61;100.00;95840.81;4982908;28;20018;-66
2023/09/12 09:13:40;;;;;;;8.90;7.50;;;;;;;22.46;100.00;95843.75;4979935;28;20026;-67
2023/09/12 09:16:21;;;;;;;9.23;7.20;;;;;;;22.39;100.00;95853.66;4985129;28;20042;-66
2023/09/12 09:19:09;;;;;;;7.90;7.20;;;;;;;22.55;100.00;95863.94;4987576;28;20044;-66
2023/09/12 09:21:36;;;;;;;8.70;8.05;;;;;;;22.79;100.00;95863.41;4988608;28;20027;-66
2023/09/12 09:24:06;;;;;;;9.30;8.38;;;;;;;22.80;100.00;95868.56;4979983;28;20026;-67
2023/09/12 09:26:45;;;;;;;8.30;7.53;;;;;;;22.98;100.00;95864.31;4983682;28;20037;-66
2023/09/12 09:29:19;;;;;;;8.05;7.30;;;;;;;23.05;100.00;95846.31;4985349;28;20034;-66
2023/09/12 09:31:50;;;;;;;8.32;7.57;;;;;;;23.13;100.00;95854.13;4983494;28;20117;-66
2023/09/12 09:34:19;;;;;;;7.97;7.38;;;;;;;23.10;100.00;95837.59;4982985;28;20043;-66
2023/09/12 09:36:50;;;;;;;8.38;7.50;;;;;;;23.06;100.00;95837.22;4984955;28;20062;-67
2023/09/12 09:39:24;;;;;;;8.02;7.25;;;;;;;23.09;100.00;95836.78;4985897;28;20049;-66
2023/09/12 09:41:52;;;;;;;8.88;7.70;;;;;;;23.14;100.00;95845.00;4989869;28;20030;-66
2023/09/12 09:44:18;;;;;;;8.38;7.63;;;;;;;23.24;100.00;95839.16;4984016;28;20104;-66
2023/09/12 09:46:44;;;;;;;8.35;7.70;;;;;;;23.35;100.00;95836.81;4987243;28;20046;-66
2023/09/12 09:49:19;;;;;;;8.43;7.82;;;;;;;23.67;100.00;95834.88;4988192;28;20352;-66
2023/09/12 09:51:45;;;;;;;;;;;;;;;23.99;100.00;95824.03;4979602;28;20063;-66
2023/09/12 09:54:11;;;;;;;13.00;7.95;;;;;;;23.94;100.00;95821.16;4979004;28;19942;-67
2023/09/12 09:56:53;;;;;;;8.93;8.02;;;;;;;23.82;100.00;95822.97;4983470;28;20033;-67
2023/09/12 09:59:21;;;;;;;8.32;7.55;;;;;;;24.05;100.00;95833.06;4980222;28;20530;-66
2023/09/12 10:01:49;;;;;;;7.85;7.13;;;;;;;24.17;100.00;95825.06;4974729;28;20031;-67
2023/09/12 10:04:15;;;;;;;8.57;7.68;;;;;;;23.94;100.00;95831.91;4987751;28;20075;-66
2023/09/12 10:06:44;;;;;;;8.73;7.47;;;;;;;23.81;100.00;95842.81;4979120;28;20034;-67
2023/09/12 10:09:11;;;;;;;8.90;7.50;;;;;;;23.77;100.00;95849.69;4983289;28;20026;-67
2023/09/12 10:11:39;;;;;;;8.23;7.63;;;;;;;23.72;100.00;95840.41;4987950;28;20031;-66
2023/09/12 10:14:06;;;;;;;7.63;7.03;;;;;;;23.64;100.00;95842.56;4989850;28;20106;-66
2023/09/12 10:16:36;;;;;;;12.60;8.13;;;;;;;23.48;100.00;95871.63;4997892;28;20109;-66
2023/09/12 10:19:17;;;;;;;9.23;7.30;;;;;;;23.66;100.00;95860.09;4989753;28;20022;-66
2023/09/12 10:21:59;;;;;;;12.68;7.90;;;;;;;23.61;100.00;95855.38;4987351;28;20030;-66
2023/09/12 10:24:27;;;;;;;7.72;7.05;;;;;;;23.45;100.00;95867.50;4989073;28;20103;-66
2023/09/12 10:26:54;;;;;;;7.75;7.10;;;;;;;23.42;100.00;95872.50;4982520;28;20349;-66
2023/09/12 10:29:20;;;;;;;13.00;7.38;;;;;;;23.73;100.00;95870.81;4990491;28;20984;-66
2023/09/12 10:31:47;;;;;;;8.60;7.40;;;;;;;23.82;100.00;95865.97;4992249;28;20117;-67
2023/09/12 10:34:14;;;;;;;8.20;7.03;;;;;;;23.95;100.00;95849.69;4977066;28;20049;-66
2023/09/12 10:36:41;;;;;;;8.80;8.00;;;;;;;23.97;100.00;95846.78;4982167;28;20376;-66
2023/09/12 10:39:07;;;;;;;9.02;7.75;;;;;;;24.05;100.00;95843.00;4989532;28;20038;-66
2023/09/12 10:41:36;;;;;;;8.70;7.43;;;;;;;24.12;100.00;95844.59;4981442;28;20034;-67
2023/09/12 10:44:09;;;;;;;8.60;7.70;;;;;;;24.37;100.00;95846.38;4989368;28;20080;-67
2023/09/12 10:46:38;;;;;;;8.45;7.63;;;;;;;24.60;100.00;95840.25;4988235;28;20034;-67
2023/09/12 10:49:06;;;;;;;8.63;7.75;;;;;;;24.58;100.00;95826.22;4982543;28;20026;-67
2023/09/12 10:51:32;;;;;;;9.70;7.53;;;;;;;24.70;100.00;95817.38;4990939;28;20052;-67
2023/09/12 10:53:57;;;;;;;7.35;6.68;;;;;;;24.91;100.00;95818.75;4985547;28;20479;-66
2023/09/12 10:56:29;;;;;;;7.72;7.10;;;;;;;24.93;100.00;95805.06;4989249;28;20030;-67
2023/09/12 10:59:06;;;;;;;8.13;6.97;;;;;;;24.98;100.00;95808.72;4990509;28;20137;-66
2023/09/12 11:02:18;;;;;;;7.75;7.00;;;;;;;24.62;100.00;95805.06;4985889;28;20034;-66
2023/09/12 11:04:43;;;;;;;7.35;6.65;;;;;;;24.44;100.00;95811.31;4987304;28;20022;-67
2023/09/12 11:07:31;;;;;;;9.15;7.50;;;;;;;24.19;100.00;95812.22;4973866;28;20088;-66
2023/09/12 11:10:20;;;;;;;10.30;6.78;;;;;;;24.35;100.00;95813.50;4973382;28;20038;-66
2023/09/12 11:12:48;;;;;;;6.65;6.15;;;;;;;24.93;100.00;95805.06;4973439;28;20031;-66
2023/09/12 11:15:15;;;;;;;7.40;6.60;;;;;;;25.46;100.00;95798.81;4996403;28;20556;-66
2023/09/12 11:17:45;;;;;;;8.77;6.82;;;;;;;25.92;100.00;95803.59;4991983;28;20391;-66